createdAt,value
2022-08-24T00:01:31.243Z,102441.88
2022-08-24T00:03:59.650Z,102431.53
2022-08-24T00:06:29.810Z,102438.78
2022-08-24T00:09:00.659Z,102431.34
2022-08-24T00:11:28.601Z,102435.66
2022-08-24T00:13:57.194Z,102436.97
2022-08-24T00:16:25.244Z,102437.88
2022-08-24T00:18:53.553Z,102441.56
2022-08-24T00:21:21.520Z,102436.19
2022-08-24T00:23:50.801Z,102438.06
2022-08-24T00:26:19.533Z,102441.91
2022-08-24T00:28:57.658Z,102438.28
2022-08-24T00:31:25.723Z,102436.94
2022-08-24T00:33:53.667Z,102437.97
2022-08-24T00:36:22.004Z,102438.13
2022-08-24T00:38:51.646Z,102442.16
2022-08-24T00:41:19.660Z,102442.25
2022-08-24T00:43:55.622Z,102443.34
2022-08-24T00:46:26.867Z,102445.66
2022-08-24T00:49:02.882Z,102441.34
2022-08-24T00:51:34.754Z,102441.41
2022-08-24T00:54:15.312Z,102433.53
2022-08-24T00:56:46.967Z,102434.78
2022-08-24T00:59:19.095Z,102436.59
2022-08-24T01:01:49.123Z,102434.28
2022-08-24T01:04:23.346Z,102439.88
2022-08-24T01:06:51.380Z,102436.47
2022-08-24T01:09:20.690Z,102437.47
2022-08-24T01:11:49.889Z,102437.56
2022-08-24T01:14:18.875Z,102433.41
2022-08-24T01:17:04.199Z,102437.72
2022-08-24T01:19:38.295Z,102433.75
2022-08-24T01:22:34.648Z,102436.72
2022-08-24T01:25:04.172Z,102437.47
2022-08-24T01:27:32.729Z,102434.81
2022-08-24T01:30:05.433Z,102439.25
2022-08-24T01:32:33.371Z,102440.41
2022-08-24T01:35:01.294Z,102443.28
2022-08-24T01:37:30.540Z,102438.19
2022-08-24T01:39:59.332Z,102443.78
2022-08-24T01:42:29.990Z,102442.09
2022-08-24T01:44:58.259Z,102444.81
2022-08-24T01:47:26.275Z,102440.66
2022-08-24T01:49:54.303Z,102439.88
2022-08-24T01:52:25.515Z,102437.75
2022-08-24T01:54:54.539Z,102442.41
2022-08-24T01:57:26.208Z,102442.50
2022-08-24T01:59:56.516Z,102442.81
2022-08-24T02:02:30.876Z,102447.53
2022-08-24T02:04:59.232Z,102448.31
2022-08-24T02:07:29.758Z,102445.59
2022-08-24T02:09:57.636Z,102438.84
2022-08-24T02:12:25.944Z,102439.19
2022-08-24T02:14:54.141Z,102443.75
2022-08-24T02:17:23.488Z,102446.47
2022-08-24T02:19:51.378Z,102444.06
2022-08-24T02:22:19.850Z,102441.75
2022-08-24T02:24:47.710Z,102451.41
2022-08-24T02:27:19.101Z,102453.88
2022-08-24T02:29:47.073Z,102449.47
2022-08-24T02:32:15.751Z,102444.47
2022-08-24T02:34:45.034Z,102450.81
2022-08-24T02:37:12.976Z,102452.81
2022-08-24T02:39:40.884Z,102451.19
2022-08-24T02:42:08.930Z,102455.59
2022-08-24T02:44:36.856Z,102449.56
2022-08-24T02:47:05.002Z,102450.78
2022-08-24T02:49:32.940Z,102446.41
2022-08-24T02:52:03.293Z,102447.22
2022-08-24T02:54:31.272Z,102456.28
2022-08-24T02:56:59.219Z,102456.34
2022-08-24T02:59:27.139Z,102452.94
2022-08-24T03:01:57.912Z,102454.19
2022-08-24T03:04:26.131Z,102458.66
2022-08-24T03:06:54.140Z,102457.81
2022-08-24T03:09:25.770Z,102457.84
2022-08-24T03:11:56.919Z,102459.84
2022-08-24T03:14:24.936Z,102466.97
2022-08-24T03:16:52.854Z,102463.69
2022-08-24T03:19:22.233Z,102462.84
2022-08-24T03:21:50.176Z,102457.97
2022-08-24T03:24:18.149Z,102459.03
2022-08-24T03:26:47.407Z,102455.09
2022-08-24T03:29:16.118Z,102461.25
2022-08-24T03:31:44.266Z,102463.72
2022-08-24T03:34:13.811Z,102461.97
2022-08-24T03:36:46.459Z,102468.88
2022-08-24T03:39:15.119Z,102466.41
2022-08-24T03:41:43.112Z,102467.28
2022-08-24T03:44:12.390Z,102470.81
2022-08-24T03:46:40.336Z,102456.13
2022-08-24T03:49:10.053Z,102459.97
2022-08-24T03:51:39.164Z,102466.16
2022-08-24T03:54:09.394Z,102467.84
2022-08-24T03:56:37.361Z,102465.31
2022-08-24T03:59:05.670Z,102462.75
2022-08-24T04:01:35.246Z,102464.53
2022-08-24T04:04:03.397Z,102461.94
2022-08-24T04:06:31.519Z,102461.53
2022-08-24T04:08:59.423Z,102469.03
2022-08-24T04:11:29.415Z,102466.13
2022-08-24T04:13:59.587Z,102467.06
2022-08-24T04:16:29.079Z,102467.91
2022-08-24T04:18:59.513Z,102462.59
2022-08-24T04:21:28.306Z,102460.19
2022-08-24T04:23:57.024Z,102467.06
2022-08-24T04:26:45.320Z,102460.81
2022-08-24T04:29:16.675Z,102465.75
2022-08-24T04:31:45.791Z,102474.34
2022-08-24T04:34:16.792Z,102466.09
2022-08-24T04:36:45.963Z,102466.66
2022-08-24T04:39:14.135Z,102466.41
2022-08-24T04:41:43.026Z,102471.31
2022-08-24T04:44:12.313Z,102478.28
2022-08-24T04:46:40.510Z,102471.44
2022-08-24T04:49:08.548Z,102476.78
2022-08-24T04:51:38.696Z,102465.31
2022-08-24T04:54:07.992Z,102475.94
2022-08-24T04:56:36.491Z,102478.19
2022-08-24T04:59:05.598Z,102478.03
2022-08-24T05:01:33.864Z,102471.09
2022-08-24T05:04:02.635Z,102475.25
2022-08-24T05:06:32.486Z,102472.44
2022-08-24T05:09:03.112Z,102482.81
2022-08-24T05:11:31.262Z,102486.06
2022-08-24T05:14:00.141Z,102483.09
2022-08-24T05:16:31.699Z,102472.13
2022-08-24T05:19:00.409Z,102477.13
2022-08-24T05:21:30.942Z,102482.97
2022-08-24T05:23:59.074Z,102482.63
2022-08-24T05:26:29.642Z,102479.69
2022-08-24T05:28:58.770Z,102485.31
2022-08-24T05:31:28.887Z,102487.53
2022-08-24T05:33:57.512Z,102485.53
2022-08-24T05:36:28.885Z,102488.59
2022-08-24T05:39:00.641Z,102489.03
2022-08-24T05:41:30.210Z,102496.81
2022-08-24T05:43:58.672Z,102501.59
2022-08-24T05:46:26.705Z,102496.47
2022-08-24T05:48:55.217Z,102494.84
2022-08-24T05:51:23.110Z,102495.25
2022-08-24T05:53:53.487Z,102487.88
2022-08-24T05:56:21.975Z,102494.66
2022-08-24T05:58:54.032Z,102494.78
2022-08-24T06:01:25.575Z,102499.28
2022-08-24T06:03:59.254Z,102490.84
2022-08-24T06:06:28.729Z,102491.91
2022-08-24T06:08:59.089Z,102486.94
2022-08-24T06:11:30.730Z,102482.72
2022-08-24T06:14:02.144Z,102485.22
2022-08-24T06:16:36.166Z,102487.41
2022-08-24T06:19:04.763Z,102496.75
2022-08-24T06:21:32.943Z,102489.78
2022-08-24T06:24:01.878Z,102495.13
2022-08-24T06:26:49.145Z,102492.09
2022-08-24T06:29:20.522Z,102490.16
2022-08-24T06:31:54.592Z,102489.03
2022-08-24T06:34:26.234Z,102490.25
2022-08-24T06:36:54.298Z,102488.03
2022-08-24T06:39:22.383Z,102494.38
2022-08-24T06:41:50.625Z,102495.44
2022-08-24T06:44:19.886Z,102502.78
2022-08-24T06:46:47.870Z,102505.03
2022-08-24T06:49:15.765Z,102506.94
2022-08-24T06:51:47.424Z,102513.53
2022-08-24T06:54:18.107Z,102520.28
2022-08-24T06:56:46.211Z,102512.88
2022-08-24T06:59:14.111Z,102503.44
2022-08-24T07:01:43.440Z,102514.53
2022-08-24T07:04:11.334Z,102511.34
2022-08-24T07:06:39.287Z,102516.97
2022-08-24T07:09:07.505Z,102517.59
2022-08-24T07:11:36.076Z,102517.72
2022-08-24T07:14:04.293Z,102519.38
2022-08-24T07:16:32.331Z,102517.28
2022-08-24T07:19:01.627Z,102531.22
2022-08-24T07:21:30.389Z,102527.66
2022-08-24T07:24:01.177Z,102528.25
2022-08-24T07:26:31.461Z,102530.34
2022-08-24T07:29:05.481Z,102527.78
2022-08-24T07:31:35.520Z,102531.59
2022-08-24T07:34:06.621Z,102526.09
2022-08-24T07:36:34.931Z,102536.22
2022-08-24T07:39:03.195Z,102527.94
2022-08-24T07:41:56.555Z,102533.66
2022-08-24T07:44:20.663Z,102535.97
2022-08-24T07:46:48.734Z,102541.88
2022-08-24T07:49:36.108Z,102538.13
2022-08-24T07:52:05.766Z,102541.53
2022-08-24T07:54:34.034Z,102544.47
2022-08-24T07:57:04.242Z,102543.41
2022-08-24T07:59:32.170Z,102536.06
2022-08-24T08:02:00.139Z,102537.41
2022-08-24T08:04:29.775Z,102535.38
2022-08-24T08:06:57.653Z,102541.81
2022-08-24T08:09:25.598Z,102537.59
2022-08-24T08:11:53.467Z,102531.38
2022-08-24T08:14:21.363Z,102529.84
2022-08-24T08:16:49.650Z,102528.31
2022-08-24T08:19:17.773Z,102524.44
2022-08-24T08:22:06.866Z,102526.50
2022-08-24T08:24:35.490Z,102526.41
2022-08-24T08:27:03.714Z,102524.59
2022-08-24T08:29:34.463Z,102524.59
2022-08-24T08:32:02.686Z,102535.69
2022-08-24T08:34:31.510Z,102531.00
2022-08-24T08:37:01.499Z,102534.47
2022-08-24T08:39:29.558Z,102535.31
2022-08-24T08:42:14.967Z,102535.69
2022-08-24T08:44:57.859Z,102534.13
2022-08-24T08:47:48.468Z,102531.94
2022-08-24T08:50:21.935Z,102527.38
2022-08-24T08:53:31.218Z,102534.72
2022-08-24T08:56:07.396Z,102530.75
2022-08-24T08:58:57.621Z,102535.81
2022-08-24T09:01:44.224Z,102543.19
2022-08-24T09:04:51.682Z,102539.81
2022-08-24T09:07:38.104Z,102537.63
2022-08-24T09:10:38.967Z,102540.63
2022-08-24T09:13:25.335Z,102544.75
2022-08-24T09:16:10.415Z,102532.16
2022-08-24T09:18:56.551Z,102535.97
2022-08-24T09:21:48.140Z,102534.50
2022-08-24T09:24:29.554Z,102539.94
2022-08-24T09:27:09.934Z,102538.25
2022-08-24T09:29:55.030Z,102534.75
2022-08-24T09:32:37.451Z,102540.06
2022-08-24T09:35:09.867Z,102535.59
2022-08-24T09:37:57.222Z,102530.84
2022-08-24T09:40:37.827Z,102530.00
2022-08-24T09:43:37.051Z,102523.59
2022-08-24T09:46:37.093Z,102528.28
2022-08-24T09:49:43.594Z,102527.25
2022-08-24T09:52:46.946Z,102530.66
2022-08-24T09:55:56.486Z,102523.91
2022-08-24T09:58:40.527Z,102522.81
2022-08-24T10:01:17.660Z,102525.09
2022-08-24T10:03:56.879Z,102521.78
2022-08-24T10:06:36.132Z,102528.88
2022-08-24T10:09:39.574Z,102529.91
2022-08-24T10:12:20.643Z,102521.19
2022-08-24T10:14:56.420Z,102522.75
2022-08-24T10:17:43.831Z,102527.13
2022-08-24T10:20:23.500Z,102530.81
2022-08-24T10:23:36.807Z,102530.94
2022-08-24T10:26:14.895Z,102528.28
2022-08-24T10:29:24.216Z,102527.38
2022-08-24T10:32:12.552Z,102524.72
2022-08-24T10:34:58.503Z,102531.84
2022-08-24T10:37:44.767Z,102539.00
2022-08-24T10:40:34.873Z,102531.72
2022-08-24T10:43:44.373Z,102530.16
2022-08-24T10:46:40.262Z,102523.34
2022-08-24T10:49:57.515Z,102528.78
2022-08-24T10:53:03.455Z,102528.16
2022-08-24T10:55:34.552Z,102528.63
2022-08-24T10:58:20.733Z,102528.09
2022-08-24T11:00:49.268Z,102529.50
2022-08-24T11:03:28.023Z,102524.03
2022-08-24T11:05:59.110Z,102533.16
2022-08-24T11:08:30.095Z,102527.97
2022-08-24T11:11:08.062Z,102529.03
2022-08-24T11:13:37.590Z,102531.03
2022-08-24T11:16:07.529Z,102525.84
2022-08-24T11:18:50.407Z,102533.56
2022-08-24T11:21:47.352Z,102533.06
2022-08-24T11:24:41.014Z,102532.25
2022-08-24T11:27:19.790Z,102532.22
2022-08-24T11:30:03.543Z,102532.63
2022-08-24T11:32:38.363Z,102527.31
2022-08-24T11:35:10.619Z,102522.53
2022-08-24T11:37:40.454Z,102535.06
2022-08-24T11:40:10.650Z,102535.50
2022-08-24T11:42:56.954Z,102524.00
2022-08-24T11:45:31.287Z,102521.75
2022-08-24T11:48:08.219Z,102536.09
2022-08-24T11:50:46.035Z,102521.25
2022-08-24T11:53:30.187Z,102527.22
2022-08-24T11:56:06.059Z,102521.44
2022-08-24T11:58:46.263Z,102514.88
2022-08-24T12:01:20.410Z,102517.28
2022-08-24T12:04:06.526Z,102511.38
2022-08-24T12:06:51.298Z,102511.38
2022-08-24T12:09:37.299Z,102511.56
2022-08-24T12:12:13.660Z,102512.28
2022-08-24T12:14:47.403Z,102511.59
2022-08-24T12:17:24.986Z,102508.06
2022-08-24T12:19:56.335Z,102507.53
2022-08-24T12:22:25.162Z,102508.06
2022-08-24T12:24:57.574Z,102506.22
2022-08-24T12:27:28.167Z,102500.63
2022-08-24T12:30:05.241Z,102500.22
2022-08-24T12:32:39.002Z,102499.38
2022-08-24T12:35:11.654Z,102497.59
2022-08-24T12:37:45.110Z,102498.56
2022-08-24T12:40:28.424Z,102503.63
2022-08-24T12:43:02.206Z,102506.19
2022-08-24T12:45:31.184Z,102500.97
2022-08-24T12:48:04.326Z,102504.88
2022-08-24T12:50:40.977Z,102515.56
2022-08-24T12:53:30.269Z,102504.44
2022-08-24T12:56:26.915Z,102515.66
2022-08-24T12:59:02.558Z,102518.31
2022-08-24T13:01:35.762Z,102517.09
2022-08-24T13:04:10.336Z,102514.56
2022-08-24T13:06:42.354Z,102514.44
2022-08-24T13:09:27.864Z,102520.63
2022-08-24T13:11:59.322Z,102521.47
2022-08-24T13:14:29.151Z,102528.34
2022-08-24T13:17:14.223Z,102519.09
2022-08-24T13:19:45.601Z,102514.88
2022-08-24T13:22:40.311Z,102520.34
2022-08-24T13:25:44.975Z,102513.94
2022-08-24T13:28:37.319Z,102510.84
2022-08-24T13:31:19.590Z,102511.28
2022-08-24T13:33:50.620Z,102514.34
2022-08-24T13:37:06.510Z,102511.81
2022-08-24T13:40:09.853Z,102508.59
2022-08-24T13:43:03.112Z,102513.66
2022-08-24T13:45:41.112Z,102510.84
2022-08-24T13:48:24.204Z,102513.09
2022-08-24T13:51:25.737Z,102512.38
2022-08-24T13:54:10.877Z,102516.56
2022-08-24T13:57:04.980Z,102525.88
2022-08-24T14:00:02.772Z,102522.78
2022-08-24T14:02:45.489Z,102519.69
2022-08-24T14:05:26.367Z,102522.22
2022-08-24T14:08:05.460Z,102520.66
2022-08-24T14:10:45.706Z,102519.56
2022-08-24T14:13:25.970Z,102520.13
2022-08-24T14:16:11.982Z,102511.97
2022-08-24T14:18:53.897Z,102518.28
2022-08-24T14:21:26.961Z,102511.41
2022-08-24T14:24:01.482Z,102509.00
2022-08-24T14:27:01.305Z,102501.44
2022-08-24T14:29:35.660Z,102500.44
2022-08-24T14:32:29.510Z,102503.56
2022-08-24T14:35:15.431Z,102508.72
2022-08-24T14:37:56.929Z,102512.09
2022-08-24T14:40:37.189Z,102513.75
2022-08-24T14:43:25.049Z,102513.63
2022-08-24T14:46:04.563Z,102511.50
2022-08-24T14:48:41.119Z,102516.72
2022-08-24T14:51:23.859Z,102517.16
2022-08-24T14:54:03.765Z,102518.56
2022-08-24T14:56:58.566Z,102514.19
2022-08-24T14:59:42.331Z,102514.03
2022-08-24T15:02:38.824Z,102521.06
2022-08-24T15:05:19.227Z,102512.50
2022-08-24T15:07:57.547Z,102515.03
2022-08-24T15:10:29.672Z,102517.84
2022-08-24T15:13:03.952Z,102517.56
2022-08-24T15:15:39.505Z,102521.66
2022-08-24T15:18:22.187Z,102521.09
2022-08-24T15:21:03.862Z,102525.03
2022-08-24T15:23:46.550Z,102523.34
2022-08-24T15:26:19.875Z,102527.56
2022-08-24T15:28:56.488Z,102529.25
2022-08-24T15:31:27.623Z,102524.69
2022-08-24T15:33:57.837Z,102532.47
2022-08-24T15:36:28.097Z,102528.13
2022-08-24T15:38:57.919Z,102532.19
2022-08-24T15:41:30.728Z,102529.81
2022-08-24T15:44:01.363Z,102530.38
2022-08-24T15:46:33.054Z,102532.47
2022-08-24T15:49:05.205Z,102531.50
2022-08-24T15:51:44.775Z,102529.25
2022-08-24T15:54:30.489Z,102526.16
2022-08-24T15:57:01.091Z,102525.03
2022-08-24T15:59:32.472Z,102518.28
2022-08-24T16:02:26.875Z,102521.66
2022-08-24T16:05:12.686Z,102520.22
2022-08-24T16:08:07.566Z,102518.31
2022-08-24T16:10:40.479Z,102518.16
2022-08-24T16:13:14.037Z,102525.16
2022-08-24T16:15:47.919Z,102520.69
2022-08-24T16:18:16.689Z,102524.31
2022-08-24T16:20:46.264Z,102520.81
2022-08-24T16:23:24.863Z,102516.69
2022-08-24T16:26:22.200Z,102516.84
2022-08-24T16:28:51.698Z,102524.97
2022-08-24T16:31:47.693Z,102529.63
2022-08-24T16:34:28.848Z,102532.56
2022-08-24T16:36:57.208Z,102532.72
2022-08-24T16:39:25.626Z,102535.66
2022-08-24T16:41:58.612Z,102537.88
2022-08-24T16:44:31.094Z,102541.69
2022-08-24T16:46:59.011Z,102538.56
2022-08-24T16:49:26.966Z,102534.38
2022-08-24T16:51:54.973Z,102534.50
2022-08-24T16:54:23.010Z,102533.66
2022-08-24T16:56:50.883Z,102532.25
2022-08-24T16:59:25.460Z,102529.00
2022-08-24T17:01:53.416Z,102543.31
2022-08-24T17:04:21.480Z,102540.34
2022-08-24T17:06:49.863Z,102546.78
2022-08-24T17:09:19.810Z,102544.81
2022-08-24T17:11:48.118Z,102540.72
2022-08-24T17:14:16.896Z,102549.00
2022-08-24T17:16:46.422Z,102549.41
2022-08-24T17:19:18.058Z,102557.78
2022-08-24T17:21:46.097Z,102566.19
2022-08-24T17:24:14.666Z,102562.91
2022-08-24T17:26:48.271Z,102565.13
2022-08-24T17:29:18.552Z,102568.19
2022-08-24T17:31:50.535Z,102568.72
2022-08-24T17:34:20.460Z,102573.84
2022-08-24T17:36:50.835Z,102578.84
2022-08-24T17:39:19.291Z,102577.56
2022-08-24T17:41:47.458Z,102567.44
2022-08-24T17:44:20.747Z,102571.59
2022-08-24T17:46:51.644Z,102572.13
2022-08-24T17:49:21.175Z,102575.41
2022-08-24T17:51:49.731Z,102592.41
2022-08-24T17:54:18.248Z,102582.41
2022-08-24T17:56:48.896Z,102577.69
2022-08-24T17:59:23.548Z,102590.31
2022-08-24T18:01:54.875Z,102588.28
2022-08-24T18:04:25.684Z,102590.00
2022-08-24T18:06:54.139Z,102590.63
2022-08-24T18:09:29.176Z,102595.13
2022-08-24T18:11:59.038Z,102600.81
2022-08-24T18:14:27.295Z,102598.88
2022-08-24T18:16:58.333Z,102604.50
2022-08-24T18:19:26.890Z,102613.13
2022-08-24T18:21:55.139Z,102603.78
2022-08-24T18:24:23.047Z,102607.53
2022-08-24T18:26:51.195Z,102607.16
2022-08-24T18:29:21.458Z,102606.06
2022-08-24T18:31:50.582Z,102609.31
2022-08-24T18:34:22.232Z,102611.69
2022-08-24T18:36:50.637Z,102605.50
2022-08-24T18:39:18.893Z,102613.22
2022-08-24T18:41:49.673Z,102606.69
2022-08-24T18:44:20.125Z,102613.50
2022-08-24T18:46:49.037Z,102613.56
2022-08-24T18:49:17.222Z,102618.72
2022-08-24T18:51:48.301Z,102621.06
2022-08-24T18:54:18.720Z,102616.53
2022-08-24T18:56:46.919Z,102619.72
2022-08-24T18:59:16.510Z,102619.41
2022-08-24T19:02:04.190Z,102612.84
2022-08-24T19:04:33.307Z,102623.56
2022-08-24T19:07:02.846Z,102627.69
2022-08-24T19:09:34.193Z,102631.31
2022-08-24T19:12:02.631Z,102630.56
2022-08-24T19:14:30.686Z,102629.75
2022-08-24T19:16:58.711Z,102630.28
2022-08-24T19:19:26.673Z,102632.59
2022-08-24T19:21:55.247Z,102633.97
2022-08-24T19:24:28.682Z,102636.41
2022-08-24T19:26:56.791Z,102643.72
2022-08-24T19:29:54.365Z,102643.81
2022-08-24T19:32:22.461Z,102648.56
2022-08-24T19:34:51.041Z,102646.44
2022-08-24T19:37:19.443Z,102648.47
2022-08-24T19:39:50.938Z,102647.81
2022-08-24T19:42:19.458Z,102649.19
2022-08-24T19:45:04.814Z,102659.72
2022-08-24T19:47:34.523Z,102649.72
2022-08-24T19:50:04.804Z,102650.22
2022-08-24T19:52:33.740Z,102654.88
2022-08-24T19:55:03.792Z,102650.81
2022-08-24T19:57:38.172Z,102662.06
2022-08-24T20:00:22.074Z,102653.63
2022-08-24T20:02:54.082Z,102660.97
2022-08-24T20:05:23.744Z,102659.50
2022-08-24T20:07:52.802Z,102665.34
2022-08-24T20:10:24.122Z,102664.97
2022-08-24T20:12:53.280Z,102662.53
2022-08-24T20:15:22.475Z,102668.00
2022-08-24T20:17:50.635Z,102665.75
2022-08-24T20:20:21.131Z,102678.31
2022-08-24T20:22:49.137Z,102667.19
2022-08-24T20:25:17.474Z,102673.59
2022-08-24T20:27:47.818Z,102676.50
2022-08-24T20:30:17.963Z,102675.56
2022-08-24T20:32:45.999Z,102672.94
2022-08-24T20:35:15.888Z,102678.41
2022-08-24T20:37:43.803Z,102676.88
2022-08-24T20:40:15.883Z,102676.13
2022-08-24T20:42:44.033Z,102680.72
2022-08-24T20:45:14.803Z,102681.78
2022-08-24T20:47:48.305Z,102680.44
2022-08-24T20:50:19.125Z,102684.38
2022-08-24T20:52:47.026Z,102691.25
2022-08-24T20:55:15.215Z,102691.53
2022-08-24T20:57:48.193Z,102692.75
2022-08-24T21:00:19.512Z,102692.50
2022-08-24T21:02:47.510Z,102695.00
2022-08-24T21:05:15.474Z,102693.66
2022-08-24T21:07:49.518Z,102693.75
2022-08-24T21:10:18.446Z,102695.59
2022-08-24T21:12:46.632Z,102698.34
2022-08-24T21:15:14.611Z,102693.53
2022-08-24T21:17:44.900Z,102694.53
2022-08-24T21:20:15.635Z,102694.78
2022-08-24T21:22:46.195Z,102694.63
2022-08-24T21:25:15.544Z,102695.56
2022-08-24T21:27:45.573Z,102700.66
2022-08-24T21:30:17.160Z,102701.91
2022-08-24T21:33:04.195Z,102700.56
2022-08-24T21:35:32.387Z,102698.84
2022-08-24T21:38:00.752Z,102695.97
2022-08-24T21:40:28.833Z,102695.44
2022-08-24T21:42:56.872Z,102696.22
2022-08-24T21:45:25.319Z,102691.28
2022-08-24T21:47:55.092Z,102690.03
2022-08-24T21:50:25.631Z,102688.63
2022-08-24T21:52:54.518Z,102694.06
2022-08-24T21:55:25.351Z,102697.72
2022-08-24T21:57:53.026Z,102703.66
2022-08-24T22:00:23.719Z,102707.31
2022-08-24T22:02:51.810Z,102710.41
2022-08-24T22:05:21.549Z,102707.16
2022-08-24T22:07:49.471Z,102705.63
2022-08-24T22:10:17.416Z,102712.59
2022-08-24T22:12:45.411Z,102711.75
2022-08-24T22:15:16.240Z,102716.25
2022-08-24T22:17:47.103Z,102713.84
2022-08-24T22:20:23.316Z,102715.63
2022-08-24T22:22:51.835Z,102713.13
2022-08-24T22:25:19.802Z,102720.59
2022-08-24T22:27:48.130Z,102708.75
2022-08-24T22:30:18.775Z,102715.03
2022-08-24T22:32:47.066Z,102713.19
2022-08-24T22:35:15.384Z,102713.94
2022-08-24T22:37:45.427Z,102713.09
2022-08-24T22:40:13.772Z,102716.75
2022-08-24T22:42:42.314Z,102716.13
2022-08-24T22:45:12.077Z,102718.25
2022-08-24T22:47:39.985Z,102712.47
2022-08-24T22:50:09.115Z,102721.41
2022-08-24T22:52:37.053Z,102718.84
2022-08-24T22:55:07.155Z,102720.81
2022-08-24T22:57:35.095Z,102721.03
2022-08-24T23:00:03.253Z,102718.41
2022-08-24T23:02:31.164Z,102716.53
2022-08-24T23:04:59.094Z,102714.91
2022-08-24T23:07:26.992Z,102712.59
2022-08-24T23:09:54.903Z,102709.97
2022-08-24T23:12:26.133Z,102716.28
2022-08-24T23:14:54.603Z,102711.25
2022-08-24T23:17:23.791Z,102715.81
2022-08-24T23:20:00.219Z,102716.03
2022-08-24T23:22:29.670Z,102713.63
2022-08-24T23:24:58.574Z,102720.75
2022-08-24T23:27:32.955Z,102721.66
2022-08-24T23:30:12.170Z,102722.75
2022-08-24T23:32:40.954Z,102729.06
2022-08-24T23:35:12.015Z,102726.44
2022-08-24T23:37:39.996Z,102719.25
2022-08-24T23:40:08.703Z,102721.06
2022-08-24T23:42:38.203Z,102724.78
2022-08-24T23:45:07.835Z,102724.88
2022-08-24T23:50:31.759Z,102725.72
2022-08-24T23:52:59.670Z,102719.84
2022-08-24T23:55:27.843Z,102722.75
2022-08-24T23:57:57.135Z,102723.91
